createdAt,value
2023-05-01T00:02:11.831Z,101994.97
2023-05-01T00:04:38.792Z,101989.69
2023-05-01T00:07:05.771Z,101987.00
2023-05-01T00:09:33.148Z,101999.84
2023-05-01T00:12:00.090Z,101987.66
2023-05-01T00:14:26.976Z,101983.16
2023-05-01T00:16:53.976Z,101979.56
2023-05-01T00:19:20.910Z,101980.31
2023-05-01T00:21:48.484Z,101972.44
2023-05-01T00:24:17.077Z,101970.59
2023-05-01T00:26:45.048Z,101974.81
2023-05-01T00:29:12.006Z,101972.97
2023-05-01T00:31:39.050Z,101965.97
2023-05-01T00:34:06.167Z,101964.16
2023-05-01T00:36:33.191Z,101958.91
2023-05-01T00:39:00.115Z,101951.00
2023-05-01T00:41:27.124Z,101951.72
2023-05-01T00:43:54.216Z,101942.13
2023-05-01T00:46:21.766Z,101945.47
2023-05-01T00:48:48.797Z,101938.44
2023-05-01T00:51:15.825Z,101925.91
2023-05-01T00:53:43.876Z,101940.75
2023-05-01T00:56:11.619Z,101935.53
2023-05-01T00:58:39.232Z,101932.88
2023-05-01T01:01:08.800Z,101925.88
2023-05-01T01:03:35.875Z,101926.63
2023-05-01T01:06:47.312Z,101929.03
2023-05-01T01:09:48.156Z,101929.09
2023-05-01T01:12:55.092Z,101919.44
2023-05-01T01:15:36.030Z,101921.91
2023-05-01T01:18:37.747Z,101922.72
2023-05-01T01:21:13.868Z,101921.81
2023-05-01T01:23:43.260Z,101929.50
2023-05-01T01:27:02.580Z,101928.50
2023-05-01T01:30:22.104Z,101910.13
2023-05-01T01:33:27.625Z,101921.91
2023-05-01T01:35:58.054Z,101915.75
2023-05-01T01:38:42.429Z,101918.22
2023-05-01T01:41:14.886Z,101916.38
2023-05-01T01:43:48.664Z,101915.50
2023-05-01T01:46:17.832Z,101912.00
2023-05-01T01:48:48.648Z,101912.84
2023-05-01T01:51:18.575Z,101907.56
2023-05-01T01:53:52.698Z,101910.91
2023-05-01T01:56:22.073Z,101908.16
2023-05-01T01:58:51.294Z,101903.81
2023-05-01T02:01:20.805Z,101908.03
2023-05-01T02:03:48.876Z,101892.09
2023-05-01T02:06:17.231Z,101908.69
2023-05-01T02:08:46.861Z,101904.25
2023-05-01T02:11:15.787Z,101899.84
2023-05-01T02:13:44.802Z,101891.69
2023-05-01T02:16:13.368Z,101897.81
2023-05-01T02:18:41.510Z,101885.44
2023-05-01T02:21:09.722Z,101876.66
2023-05-01T02:23:38.478Z,101881.16
2023-05-01T02:26:07.101Z,101888.75
2023-05-01T02:28:35.783Z,101890.63
2023-05-01T02:31:02.676Z,101887.97
2023-05-01T02:33:29.591Z,101883.53
2023-05-01T02:35:57.858Z,101881.63
2023-05-01T02:38:24.837Z,101880.03
2023-05-01T02:40:57.117Z,101885.19
2023-05-01T02:43:27.034Z,101879.06
2023-05-01T02:45:55.254Z,101880.75
2023-05-01T02:48:25.890Z,101877.22
2023-05-01T02:50:55.555Z,101873.69
2023-05-01T02:53:22.841Z,101880.47
2023-05-01T02:55:53.940Z,101874.97
2023-05-01T02:58:21.505Z,101867.19
2023-05-01T03:00:51.701Z,101874.03
2023-05-01T03:03:20.032Z,101866.97
2023-05-01T03:05:47.887Z,101865.16
2023-05-01T03:08:15.063Z,101864.19
2023-05-01T03:10:43.201Z,101861.53
2023-05-01T03:13:11.545Z,101865.81
2023-05-01T03:15:38.886Z,101862.44
2023-05-01T03:18:05.980Z,101861.53
2023-05-01T03:20:32.935Z,101867.63
2023-05-01T03:23:00.118Z,101865.06
2023-05-01T03:25:27.123Z,101859.91
2023-05-01T03:27:55.273Z,101852.09
2023-05-01T03:30:23.079Z,101853.94
2023-05-01T03:32:51.932Z,101848.63
2023-05-01T03:35:24.779Z,101839.00
2023-05-01T03:37:51.777Z,101845.97
2023-05-01T03:40:38.675Z,101846.75
2023-05-01T03:43:24.571Z,101840.75
2023-05-01T03:45:53.110Z,101838.09
2023-05-01T03:48:20.506Z,101835.38
2023-05-01T03:50:47.602Z,101835.56
2023-05-01T03:53:15.353Z,101838.28
2023-05-01T03:55:43.463Z,101826.31
2023-05-01T03:58:12.899Z,101823.84
2023-05-01T04:00:39.963Z,101824.00
2023-05-01T04:03:07.108Z,101827.66
2023-05-01T04:05:36.187Z,101824.56
2023-05-01T04:08:04.405Z,101826.09
2023-05-01T04:10:31.465Z,101811.28
2023-05-01T04:13:03.761Z,101819.38
2023-05-01T04:15:30.699Z,101809.19
2023-05-01T04:17:57.883Z,101811.75
2023-05-01T04:20:24.834Z,101814.09
2023-05-01T04:22:51.951Z,101813.63
2023-05-01T04:25:19.229Z,101806.25
2023-05-01T04:27:49.743Z,101794.44
2023-05-01T04:30:16.716Z,101804.22
2023-05-01T04:32:43.993Z,101807.91
2023-05-01T04:35:12.367Z,101799.56
2023-05-01T04:37:42.349Z,101793.06
2023-05-01T04:40:11.659Z,101793.50
2023-05-01T04:42:39.428Z,101801.69
2023-05-01T04:45:09.937Z,101798.69
2023-05-01T04:47:37.181Z,101802.47
2023-05-01T04:50:06.165Z,101799.31
2023-05-01T04:52:33.082Z,101799.56
2023-05-01T04:55:03.723Z,101790.97
2023-05-01T04:57:33.716Z,101794.66
2023-05-01T05:00:05.627Z,101794.81
2023-05-01T05:02:34.574Z,101794.09
2023-05-01T05:05:01.733Z,101788.03
2023-05-01T05:07:28.701Z,101788.16
2023-05-01T05:10:18.246Z,101785.59
2023-05-01T05:12:53.980Z,101784.78
2023-05-01T05:15:21.592Z,101780.44
2023-05-01T05:17:48.620Z,101784.06
2023-05-01T05:20:15.747Z,101782.41
2023-05-01T05:22:42.639Z,101791.19
2023-05-01T05:25:24.481Z,101783.41
2023-05-01T05:27:52.473Z,101787.94
2023-05-01T05:30:19.499Z,101779.38
2023-05-01T05:32:47.752Z,101780.44
2023-05-01T05:35:14.903Z,101770.25
2023-05-01T05:37:43.362Z,101769.66
2023-05-01T05:40:12.167Z,101768.13
2023-05-01T05:42:49.118Z,101765.78
2023-05-01T05:45:16.128Z,101766.91
2023-05-01T05:47:43.040Z,101764.53
2023-05-01T05:50:11.269Z,101754.31
2023-05-01T05:52:38.939Z,101759.78
2023-05-01T05:55:06.856Z,101757.47
2023-05-01T05:57:37.102Z,101762.03
2023-05-01T06:00:09.278Z,101760.50
2023-05-01T06:02:39.549Z,101750.31
2023-05-01T06:05:08.219Z,101752.22
2023-05-01T06:07:35.941Z,101745.34
2023-05-01T06:10:04.348Z,101747.41
2023-05-01T06:12:31.826Z,101742.25
2023-05-01T06:14:59.955Z,101750.31
2023-05-01T06:17:27.515Z,101743.59
2023-05-01T06:19:54.593Z,101743.84
2023-05-01T06:22:22.730Z,101739.72
2023-05-01T06:25:01.621Z,101742.53
2023-05-01T06:27:30.461Z,101736.69
2023-05-01T06:29:57.554Z,101731.66
2023-05-01T06:32:24.905Z,101731.84
2023-05-01T06:34:52.652Z,101727.69
2023-05-01T06:37:19.823Z,101725.22
2023-05-01T06:39:48.117Z,101725.38
2023-05-01T06:42:16.794Z,101729.03
2023-05-01T06:44:44.188Z,101727.44
2023-05-01T06:47:11.266Z,101720.63
2023-05-01T06:49:40.467Z,101721.59
2023-05-01T06:52:07.397Z,101722.56
2023-05-01T06:54:34.296Z,101726.16
2023-05-01T06:57:01.348Z,101719.34
2023-05-01T06:59:28.266Z,101720.34
2023-05-01T07:01:55.167Z,101712.59
2023-05-01T07:04:22.088Z,101716.22
2023-05-01T07:06:49.314Z,101713.69
2023-05-01T07:09:16.335Z,101704.16
2023-05-01T07:11:43.288Z,101706.06
2023-05-01T07:14:10.236Z,101699.22
2023-05-01T07:16:37.213Z,101699.31
2023-05-01T07:19:04.227Z,101693.31
2023-05-01T07:21:32.308Z,101691.69
2023-05-01T07:23:59.229Z,101696.97
2023-05-01T07:26:29.190Z,101685.69
2023-05-01T07:28:56.078Z,101691.97
2023-05-01T07:31:23.401Z,101681.59
2023-05-01T07:33:51.096Z,101683.41
2023-05-01T07:36:20.448Z,101652.84
2023-05-01T07:38:47.791Z,101681.84
2023-05-01T07:41:14.701Z,101686.25
2023-05-01T07:43:41.567Z,101682.84
2023-05-01T07:46:08.535Z,101683.75
2023-05-01T07:48:36.932Z,101678.56
2023-05-01T07:51:05.859Z,101667.19
2023-05-01T07:53:33.156Z,101661.16
2023-05-01T07:56:10.172Z,101662.06
2023-05-01T07:58:38.135Z,101659.47
2023-05-01T08:01:06.411Z,101651.63
2023-05-01T08:03:33.438Z,101653.38
2023-05-01T08:06:00.519Z,101643.78
2023-05-01T08:08:27.453Z,101635.91
2023-05-01T08:10:54.845Z,101639.47
2023-05-01T08:13:21.759Z,101640.34
2023-05-01T08:15:49.137Z,101637.72
2023-05-01T08:18:20.395Z,101636.84
2023-05-01T08:20:48.423Z,101645.59
2023-05-01T08:23:18.693Z,101636.00
2023-05-01T08:25:46.960Z,101635.97
2023-05-01T08:28:15.044Z,101627.22
2023-05-01T08:30:41.984Z,101642.97
2023-05-01T08:33:08.909Z,101638.63
2023-05-01T08:35:35.897Z,101615.84
2023-05-01T08:38:03.129Z,101633.31
2023-05-01T08:40:36.432Z,101641.19
2023-05-01T08:43:04.159Z,101621.03
2023-05-01T08:45:36.202Z,101630.63
2023-05-01T08:48:10.227Z,101626.25
2023-05-01T08:50:39.847Z,101624.41
2023-05-01T08:53:07.054Z,101619.13
2023-05-01T08:55:35.314Z,101612.13
2023-05-01T08:58:04.235Z,101605.03
2023-05-01T09:00:34.297Z,101596.22
2023-05-01T09:03:03.081Z,101601.44
2023-05-01T09:05:32.909Z,101599.63
2023-05-01T09:08:00.769Z,101593.41
2023-05-01T09:10:27.861Z,101593.34
2023-05-01T09:12:59.904Z,101589.75
2023-05-01T09:15:28.293Z,101590.53
2023-05-01T09:17:56.483Z,101580.88
2023-05-01T09:20:24.445Z,101581.69
2023-05-01T09:22:51.640Z,101579.00
2023-05-01T09:25:19.352Z,101574.59
2023-05-01T09:27:46.289Z,101575.47
2023-05-01T09:30:39.615Z,101570.97
2023-05-01T09:33:15.392Z,101568.28
2023-05-01T09:35:54.580Z,101558.53
2023-05-01T09:38:27.111Z,101555.84
2023-05-01T09:40:56.951Z,101555.78
2023-05-01T09:43:28.340Z,101557.47
2023-05-01T09:46:11.925Z,101555.66
2023-05-01T09:48:39.483Z,101546.78
2023-05-01T09:51:29.324Z,101552.88
2023-05-01T09:53:59.654Z,101544.06
2023-05-01T09:56:29.038Z,101536.84
2023-05-01T09:58:57.999Z,101535.94
2023-05-01T10:01:39.993Z,101532.34
2023-05-01T10:04:09.570Z,101539.25
2023-05-01T10:06:38.434Z,101536.53
2023-05-01T10:09:07.837Z,101532.13
2023-05-01T10:11:59.124Z,101524.97
2023-05-01T10:14:28.075Z,101522.25
2023-05-01T10:16:56.762Z,101510.75
2023-05-01T10:19:23.786Z,101511.59
2023-05-01T10:21:50.849Z,101529.97
2023-05-01T10:24:17.852Z,101507.91
2023-05-01T10:26:48.609Z,101494.66
2023-05-01T10:29:15.948Z,101502.56
2023-05-01T10:31:42.959Z,101494.59
2023-05-01T10:34:12.478Z,101478.69
2023-05-01T10:36:54.797Z,101479.53
2023-05-01T10:39:34.023Z,101492.69
2023-05-01T10:42:06.226Z,101477.75
2023-05-01T10:44:34.898Z,101473.34
2023-05-01T10:47:24.534Z,101464.38
2023-05-01T10:50:12.477Z,101449.28
2023-05-01T10:53:14.329Z,101455.31
2023-05-01T10:55:49.418Z,101450.84
2023-05-01T10:58:43.582Z,101445.53
2023-05-01T11:01:44.936Z,101438.41
2023-05-01T11:04:24.544Z,101426.03
2023-05-01T11:07:10.848Z,101434.72
2023-05-01T11:09:42.773Z,101431.13
2023-05-01T11:12:11.987Z,101421.38
2023-05-01T11:14:54.630Z,101414.19
2023-05-01T11:17:39.942Z,101409.72
2023-05-01T11:20:08.513Z,101420.13
2023-05-01T11:22:37.316Z,101404.94
2023-05-01T11:25:18.219Z,101407.41
2023-05-01T11:27:49.846Z,101397.56
2023-05-01T11:30:17.112Z,101390.34
2023-05-01T11:32:47.698Z,101385.91
2023-05-01T11:35:21.075Z,101378.84
2023-05-01T11:37:49.014Z,101387.38
2023-05-01T11:40:24.517Z,101378.50
2023-05-01T11:43:01.427Z,101372.47
2023-05-01T11:45:28.871Z,101374.31
2023-05-01T11:47:56.257Z,101369.97
2023-05-01T11:50:32.330Z,101364.63
2023-05-01T11:52:59.242Z,101348.63
2023-05-01T11:55:35.760Z,101351.19
2023-05-01T11:58:04.904Z,101348.44
2023-05-01T12:00:38.235Z,101350.19
2023-05-01T12:03:15.503Z,101343.09
2023-05-01T12:05:44.717Z,101341.19
2023-05-01T12:08:19.476Z,101328.09
2023-05-01T12:10:53.133Z,101331.38
2023-05-01T12:13:20.689Z,101333.81
2023-05-01T12:15:50.417Z,101325.69
2023-05-01T12:18:18.555Z,101322.88
2023-05-01T12:20:48.588Z,101323.44
2023-05-01T12:23:16.633Z,101326.81
2023-05-01T12:25:45.476Z,101321.53
2023-05-01T12:28:19.480Z,101324.06
2023-05-01T12:30:49.893Z,101316.03
2023-05-01T12:33:19.290Z,101309.88
2023-05-01T12:35:49.085Z,101302.66
2023-05-01T12:38:21.773Z,101308.63
2023-05-01T12:40:59.621Z,101305.75
2023-05-01T12:43:36.806Z,101299.50
2023-05-01T12:46:06.084Z,101305.59
2023-05-01T12:48:34.326Z,101295.75
2023-05-01T12:51:01.754Z,101294.72
2023-05-01T12:53:30.003Z,101300.81
2023-05-01T12:55:58.638Z,101286.72
2023-05-01T12:58:37.020Z,101288.56
2023-05-01T13:01:04.384Z,101279.75
2023-05-01T13:03:33.380Z,101285.97
2023-05-01T13:06:03.139Z,101271.81
2023-05-01T13:08:32.161Z,101267.16
2023-05-01T13:11:01.723Z,101269.56
2023-05-01T13:13:33.522Z,101256.25
2023-05-01T13:16:13.963Z,101266.50
2023-05-01T13:18:52.262Z,101261.81
2023-05-01T13:21:22.489Z,101259.66
2023-05-01T13:24:07.409Z,101252.28
2023-05-01T13:26:35.964Z,101252.75
2023-05-01T13:29:06.033Z,101241.72
2023-05-01T13:31:33.226Z,101242.28
2023-05-01T13:34:00.938Z,101232.22
2023-05-01T13:36:34.351Z,101224.16
2023-05-01T13:39:01.382Z,101227.50
2023-05-01T13:41:29.918Z,101226.44
2023-05-01T13:43:57.543Z,101221.09
2023-05-01T13:46:26.629Z,101218.44
2023-05-01T13:48:53.860Z,101218.22
2023-05-01T13:51:23.894Z,101211.94
2023-05-01T13:53:53.435Z,101210.94
2023-05-01T13:56:21.778Z,101204.78
2023-05-01T13:58:50.217Z,101207.44
2023-05-01T14:01:20.564Z,101207.59
2023-05-01T14:03:48.910Z,101206.53
2023-05-01T14:06:19.159Z,101211.78
2023-05-01T14:08:48.074Z,101205.56
2023-05-01T14:11:15.407Z,101198.47
2023-05-01T14:13:44.254Z,101198.97
2023-05-01T14:16:24.668Z,101192.63
2023-05-01T14:18:55.438Z,101188.00
2023-05-01T14:21:24.602Z,101185.94
2023-05-01T14:23:56.679Z,101184.03
2023-05-01T14:26:24.540Z,101177.72
2023-05-01T14:28:51.475Z,101181.84
2023-05-01T14:31:30.346Z,101178.41
2023-05-01T14:34:03.730Z,101188.06
2023-05-01T14:36:33.849Z,101181.06
2023-05-01T14:39:03.429Z,101175.84
2023-05-01T14:41:31.512Z,101169.91
2023-05-01T14:43:58.407Z,101169.72
2023-05-01T14:46:31.724Z,101172.41
2023-05-01T14:49:00.836Z,101166.31
2023-05-01T14:51:29.189Z,101173.38
2023-05-01T14:53:56.264Z,101167.25
2023-05-01T14:56:23.827Z,101161.13
2023-05-01T14:58:50.807Z,101149.81
2023-05-01T15:01:18.219Z,101146.47
2023-05-01T15:03:45.852Z,101146.78
2023-05-01T15:06:13.042Z,101152.38
2023-05-01T15:08:40.237Z,101148.09
2023-05-01T15:11:07.596Z,101153.47
2023-05-01T15:13:34.597Z,101148.25
2023-05-01T15:16:01.574Z,101142.25
2023-05-01T15:18:28.492Z,101148.63
2023-05-01T15:20:55.709Z,101140.81
2023-05-01T15:23:23.863Z,101140.72
2023-05-01T15:25:50.963Z,101139.84
2023-05-01T15:28:17.928Z,101142.50
2023-05-01T15:30:46.724Z,101153.97
2023-05-01T15:33:17.763Z,101139.81
2023-05-01T15:35:46.899Z,101137.16
2023-05-01T15:38:13.792Z,101130.94
2023-05-01T15:40:43.181Z,101133.69
2023-05-01T15:43:10.091Z,101143.44
2023-05-01T15:45:42.587Z,101135.53
2023-05-01T15:48:10.066Z,101131.16
2023-05-01T15:50:37.023Z,101129.53
2023-05-01T15:53:03.950Z,101126.88
2023-05-01T15:55:30.821Z,101119.00
2023-05-01T15:57:57.707Z,101119.84
2023-05-01T16:00:25.362Z,101114.50
2023-05-01T16:02:52.395Z,101108.31
2023-05-01T16:05:24.617Z,101108.19
2023-05-01T16:07:55.545Z,101117.88
2023-05-01T16:10:23.299Z,101114.34
2023-05-01T16:12:51.080Z,101103.69
2023-05-01T16:15:18.618Z,101110.78
2023-05-01T16:17:46.677Z,101108.06
2023-05-01T16:20:14.877Z,101102.72
2023-05-01T16:22:43.176Z,101111.47
2023-05-01T16:25:11.258Z,101109.66
2023-05-01T16:27:45.870Z,101106.06
2023-05-01T16:30:16.790Z,101104.34
2023-05-01T16:32:44.804Z,101099.03
2023-05-01T16:35:17.671Z,101096.31
2023-05-01T16:37:44.623Z,101097.13
2023-05-01T16:40:16.802Z,101095.19
2023-05-01T16:42:52.086Z,101102.16
2023-05-01T16:45:19.728Z,101096.78
2023-05-01T16:47:47.094Z,101090.41
2023-05-01T16:50:14.298Z,101088.44
2023-05-01T16:52:41.195Z,101090.78
2023-05-01T16:55:09.140Z,101084.50
2023-05-01T16:57:36.085Z,101088.63
2023-05-01T17:00:05.023Z,101083.03
2023-05-01T17:02:33.460Z,101087.25
2023-05-01T17:05:00.450Z,101078.72
2023-05-01T17:07:27.425Z,101079.22
2023-05-01T17:09:54.654Z,101073.06
2023-05-01T17:12:21.642Z,101084.06
2023-05-01T17:14:48.535Z,101085.75
2023-05-01T17:17:17.750Z,101078.53
2023-05-01T17:19:44.683Z,101077.66
2023-05-01T17:22:11.642Z,101071.53
2023-05-01T17:24:38.833Z,101069.13
2023-05-01T17:27:05.769Z,101064.28
2023-05-01T17:29:32.655Z,101067.97
2023-05-01T17:31:59.609Z,101076.25
2023-05-01T17:34:26.936Z,101075.72
2023-05-01T17:36:55.195Z,101073.38
2023-05-01T17:39:23.465Z,101081.66
2023-05-01T17:41:50.374Z,101070.63
2023-05-01T17:44:17.248Z,101078.13
2023-05-01T17:46:44.249Z,101075.84
2023-05-01T17:49:11.133Z,101073.53
2023-05-01T17:51:38.049Z,101073.81
2023-05-01T17:54:05.955Z,101068.00
2023-05-01T17:56:33.042Z,101069.97
2023-05-01T17:59:00.025Z,101067.69
2023-05-01T18:01:28.268Z,101063.56
2023-05-01T18:03:55.492Z,101076.97
2023-05-01T18:06:22.513Z,101063.22
2023-05-01T18:08:50.088Z,101068.75
2023-05-01T18:11:17.143Z,101068.25
2023-05-01T18:13:47.303Z,101055.28
2023-05-01T18:16:15.842Z,101063.63
2023-05-01T18:18:42.896Z,101062.28
2023-05-01T18:21:09.788Z,101065.25
2023-05-01T18:23:36.727Z,101070.84
2023-05-01T18:26:03.838Z,101065.09
2023-05-01T18:28:31.571Z,101071.59
2023-05-01T18:30:58.596Z,101073.63
2023-05-01T18:33:25.920Z,101061.69
2023-05-01T18:35:53.640Z,101073.38
2023-05-01T18:38:20.666Z,101062.31
2023-05-01T18:40:47.855Z,101077.53
2023-05-01T18:43:15.622Z,101068.09
2023-05-01T18:45:42.525Z,101073.63
2023-05-01T18:48:09.449Z,101072.13
2023-05-01T18:50:36.461Z,101068.00
2023-05-01T18:53:03.487Z,101078.69
2023-05-01T18:55:30.939Z,101078.91
2023-05-01T18:57:58.096Z,101072.09
2023-05-01T19:00:26.456Z,101073.16
2023-05-01T19:02:53.665Z,101078.63
2023-05-01T19:05:22.356Z,101076.25
2023-05-01T19:07:49.393Z,101074.78
2023-05-01T19:10:16.311Z,101077.66
2023-05-01T19:12:43.338Z,101077.84
2023-05-01T19:15:10.509Z,101084.13
2023-05-01T19:17:37.704Z,101087.81
2023-05-01T19:20:05.498Z,101086.22
2023-05-01T19:22:32.442Z,101088.16
2023-05-01T19:25:00.100Z,101090.06
2023-05-01T19:27:27.151Z,101091.22
2023-05-01T19:29:54.527Z,101095.69
2023-05-01T19:32:22.959Z,101112.56
2023-05-01T19:34:50.235Z,101086.34
2023-05-01T19:37:17.497Z,101090.84
2023-05-01T19:39:44.498Z,101084.84
2023-05-01T19:42:11.852Z,101084.16
2023-05-01T19:44:38.783Z,101085.16
2023-05-01T19:47:05.718Z,101075.59
2023-05-01T19:49:32.583Z,101082.69
2023-05-01T19:51:59.756Z,101086.31
2023-05-01T19:54:26.727Z,101081.19
2023-05-01T19:56:53.602Z,101083.91
2023-05-01T19:59:20.635Z,101081.34
2023-05-01T20:01:47.578Z,101070.91
2023-05-01T20:04:14.517Z,101081.44
2023-05-01T20:06:41.427Z,101074.53
2023-05-01T20:09:08.300Z,101074.63
2023-05-01T20:11:35.256Z,101073.84
2023-05-01T20:14:03.525Z,101074.81
2023-05-01T20:16:30.937Z,101082.81
2023-05-01T20:18:57.923Z,101075.00
2023-05-01T20:21:24.847Z,101069.81
2023-05-01T20:23:52.316Z,101056.91
2023-05-01T20:26:19.186Z,101070.88
2023-05-01T20:28:46.761Z,101072.72
2023-05-01T20:31:13.782Z,101074.53
2023-05-01T20:33:40.760Z,101066.72
2023-05-01T20:36:07.715Z,101072.91
2023-05-01T20:38:42.265Z,101073.88
2023-05-01T20:41:10.004Z,101081.84
2023-05-01T20:43:36.990Z,101072.25
2023-05-01T20:46:03.898Z,101075.78
2023-05-01T20:48:32.204Z,101077.63
2023-05-01T20:50:59.054Z,101080.25
2023-05-01T20:53:25.922Z,101074.19
2023-05-01T20:55:52.778Z,101075.97
2023-05-01T20:58:19.671Z,101086.56
2023-05-01T21:00:46.510Z,101083.97
2023-05-01T21:03:15.204Z,101088.41
2023-05-01T21:05:42.274Z,101086.75
2023-05-01T21:08:09.155Z,101082.44
2023-05-01T21:10:36.755Z,101077.22
2023-05-01T21:13:03.749Z,101080.81
2023-05-01T21:15:32.006Z,101068.63
2023-05-01T21:17:59.530Z,101062.53
2023-05-01T21:20:35.765Z,101064.34
2023-05-01T21:23:02.794Z,101067.03
2023-05-01T21:25:31.890Z,101068.81
2023-05-01T21:28:02.119Z,101070.59
2023-05-01T21:30:34.721Z,101071.53
2023-05-01T21:33:05.368Z,101064.53
2023-05-01T21:35:32.747Z,101072.44
2023-05-01T21:38:00.339Z,101072.47
2023-05-01T21:40:27.428Z,101076.91
2023-05-01T21:42:54.977Z,101075.22
2023-05-01T21:45:22.447Z,101069.97
2023-05-01T21:47:51.211Z,101079.66
2023-05-01T21:50:21.158Z,101082.31
2023-05-01T21:52:49.610Z,101073.59
2023-05-01T21:55:25.881Z,101065.75
2023-05-01T21:57:55.580Z,101074.50
2023-05-01T22:00:22.448Z,101073.66
2023-05-01T22:02:50.937Z,101071.97
2023-05-01T22:05:22.512Z,101072.88
2023-05-01T22:07:54.113Z,101073.78
2023-05-01T22:10:21.146Z,101066.84
2023-05-01T22:12:51.540Z,101066.03
2023-05-01T22:15:18.649Z,101074.78
2023-05-01T22:17:45.867Z,101080.09
2023-05-01T22:20:13.159Z,101083.63
2023-05-01T22:22:41.320Z,101076.63
2023-05-01T22:25:09.801Z,101077.59
2023-05-01T22:27:36.896Z,101077.59
2023-05-01T22:30:05.202Z,101075.03
2023-05-01T22:32:32.160Z,101070.69
2023-05-01T22:34:59.328Z,101074.22
2023-05-01T22:37:26.288Z,101075.16
2023-05-01T22:39:53.774Z,101073.44
2023-05-01T22:42:21.245Z,101077.84
2023-05-01T22:44:48.412Z,101072.59
2023-05-01T22:47:15.704Z,101077.84
2023-05-01T22:49:42.607Z,101078.75
2023-05-01T22:52:09.539Z,101072.63
2023-05-01T22:54:36.432Z,101077.88
2023-05-01T22:57:03.385Z,101075.25
2023-05-01T22:59:30.323Z,101074.38
2023-05-01T23:01:57.370Z,101076.13
2023-05-01T23:04:24.412Z,101078.75
2023-05-01T23:06:51.407Z,101082.22
2023-05-01T23:09:18.388Z,101078.72
2023-05-01T23:11:47.693Z,101077.88
2023-05-01T23:14:18.085Z,101070.03
2023-05-01T23:16:45.044Z,101085.78
2023-05-01T23:19:25.501Z,101076.22
2023-05-01T23:22:08.945Z,101085.84
2023-05-01T23:24:56.067Z,101083.25
2023-05-01T23:27:22.961Z,101090.31
2023-05-01T23:29:54.595Z,101077.22
2023-05-01T23:32:30.621Z,101086.03
2023-05-01T23:35:05.561Z,101073.84
2023-05-01T23:37:32.544Z,101081.75
2023-05-01T23:40:00.735Z,101081.75
2023-05-01T23:42:28.341Z,101066.97
2023-05-01T23:44:56.739Z,101081.84
2023-05-01T23:47:23.728Z,101086.25
2023-05-01T23:49:51.359Z,101088.03
2023-05-01T23:52:18.332Z,101087.19
2023-05-01T23:54:45.202Z,101086.34
2023-05-01T23:57:12.199Z,101097.72
2023-05-01T23:59:39.059Z,101095.13
